Time;durP1;ratioP1;P1;durP2;ratioP2;P2;SDS_P1;SDS_P2;PMS_P1;PMS_P2;Temp;Humidity;BMP_temperature;BMP_pressure;BME280_temperature;BME280_humidity;BME280_pressure;Samples;Min_cycle;Max_cycle;Signal;HPM_P1;HPM_P2
2022/01/11 00:01:54;;;;;;;1.70;1.50;;;0.90;98.20;;;;;;4969846;28;20599;-73
2022/01/11 00:04:28;;;;;;;1.67;1.50;;;0.90;98.20;;;;;;4976301;28;20573;-73
2022/01/11 00:06:57;;;;;;;1.70;1.50;;;0.90;98.20;;;;;;4971346;28;20485;-73
2022/01/11 00:09:32;;;;;;;1.70;1.60;;;0.80;98.20;;;;;;4977660;28;20494;-73
2022/01/11 00:12:00;;;;;;;1.67;1.50;;;0.90;98.20;;;;;;4971179;28;20492;-73
2022/01/11 00:14:26;;;;;;;1.90;1.80;;;0.90;98.20;;;;;;4977939;28;20494;-73
2022/01/11 00:16:53;;;;;;;1.70;1.60;;;0.90;98.20;;;;;;4970942;28;21059;-73
2022/01/11 00:19:20;;;;;;;1.70;1.60;;;0.90;98.20;;;;;;4977599;28;20469;-73
2022/01/11 00:21:49;;;;;;;1.70;1.50;;;0.90;98.20;;;;;;4969196;28;20539;-73
2022/01/11 00:24:29;;;;;;;1.67;1.40;;;0.90;98.20;;;;;;4978769;28;20508;-73
2022/01/11 00:26:57;;;;;;;1.70;1.50;;;0.90;98.20;;;;;;4967410;28;20472;-73
2022/01/11 00:29:24;;;;;;;1.60;1.50;;;0.90;98.20;;;;;;4971540;28;21344;-73
2022/01/11 00:31:51;;;;;;;1.70;1.60;;;0.90;98.20;;;;;;4969126;28;20505;-74
2022/01/11 00:34:20;;;;;;;1.70;1.57;;;0.90;98.20;;;;;;4978646;28;20497;-74
2022/01/11 00:36:50;;;;;;;1.93;1.83;;;0.80;98.20;;;;;;4968040;28;20493;-73
2022/01/11 00:39:18;;;;;;;1.70;1.60;;;0.90;98.20;;;;;;4976780;28;20466;-73
2022/01/11 00:41:45;;;;;;;1.83;1.73;;;0.90;98.20;;;;;;4968626;28;20493;-73
2022/01/11 00:44:13;;;;;;;1.80;1.70;;;0.90;98.20;;;;;;4978172;28;20482;-73
2022/01/11 00:46:40;;;;;;;1.70;1.60;;;1.00;98.20;;;;;;4968627;28;20485;-73
2022/01/11 00:49:07;;;;;;;1.67;1.50;;;1.00;98.20;;;;;;4979160;28;21002;-73
2022/01/11 00:51:34;;;;;;;1.70;1.57;;;1.00;98.20;;;;;;4967927;28;20481;-73
2022/01/11 00:54:01;;;;;;;1.70;1.50;;;1.00;98.20;;;;;;4982627;28;20490;-73
2022/01/11 00:56:29;;;;;;;1.63;1.50;;;1.00;98.20;;;;;;4964623;28;20474;-73
2022/01/11 00:58:55;;;;;;;1.70;1.60;;;1.00;98.20;;;;;;4979370;28;20870;-73
2022/01/11 01:01:22;;;;;;;1.70;1.60;;;0.90;98.20;;;;;;4964760;28;20488;-73
2022/01/11 01:03:49;;;;;;;1.70;1.60;;;0.90;98.20;;;;;;4980293;28;20494;-74
2022/01/11 01:06:17;;;;;;;1.70;1.53;;;0.90;98.20;;;;;;4965239;28;20858;-73
2022/01/11 01:08:44;;;;;;;1.90;1.70;;;0.90;98.20;;;;;;4982069;28;20528;-73
2022/01/11 01:11:11;;;;;;;1.67;1.50;;;0.90;98.20;;;;;;4964003;28;20563;-74
2022/01/11 01:13:39;;;;;;;1.70;1.53;;;0.90;98.20;;;;;;4983252;28;20521;-73
2022/01/11 01:16:06;;;;;;;1.70;1.50;;;0.90;98.20;;;;;;4963518;28;20482;-73
2022/01/11 01:18:34;;;;;;;2.13;1.93;;;0.90;98.20;;;;;;4983461;28;20498;-73
2022/01/11 01:21:01;;;;;;;1.73;1.63;;;0.90;98.20;;;;;;4961806;28;20524;-73
2022/01/11 01:23:28;;;;;;;1.67;1.50;;;0.90;98.20;;;;;;4979935;28;20481;-74
2022/01/11 01:25:55;;;;;;;1.90;1.80;;;0.90;98.20;;;;;;4961267;28;20745;-74
2022/01/11 01:28:22;;;;;;;1.70;1.60;;;0.90;98.20;;;;;;4981362;28;20858;-73
2022/01/11 01:30:51;;;;;;;1.70;1.60;;;0.90;98.20;;;;;;4960833;28;20489;-74
2022/01/11 01:33:19;;;;;;;1.70;1.60;;;0.80;98.20;;;;;;4982639;28;20509;-73
2022/01/11 01:35:51;;;;;;;1.83;1.73;;;0.80;98.20;;;;;;4969625;28;20828;-74
2022/01/11 01:38:21;;;;;;;1.70;1.60;;;0.80;98.20;;;;;;4984171;28;20802;-73
2022/01/11 01:40:48;;;;;;;1.70;1.60;;;0.80;98.20;;;;;;4959417;28;20474;-73
2022/01/11 01:43:15;;;;;;;1.80;1.70;;;0.80;98.20;;;;;;4981396;28;20569;-73
2022/01/11 01:45:44;;;;;;;1.70;1.60;;;0.80;98.20;;;;;;4968279;28;20491;-73
2022/01/11 01:48:14;;;;;;;1.70;1.60;;;0.80;98.20;;;;;;4959062;28;20494;-73
2022/01/11 01:50:41;;;;;;;1.90;1.80;;;0.80;98.20;;;;;;4969567;28;20466;-74
2022/01/11 01:53:11;;;;;;;1.70;1.60;;;0.80;98.20;;;;;;4973503;28;20496;-74
2022/01/11 01:55:39;;;;;;;1.73;1.63;;;0.90;98.20;;;;;;4967555;28;20557;-73
2022/01/11 01:58:06;;;;;;;1.70;1.50;;;0.90;98.20;;;;;;4976196;28;20496;-73
2022/01/11 02:00:40;;;;;;;1.80;1.70;;;0.90;98.20;;;;;;4970381;28;20523;-73
2022/01/11 02:03:10;;;;;;;1.63;1.50;;;0.90;98.20;;;;;;4975874;28;20504;-73
2022/01/11 02:05:40;;;;;;;1.70;1.50;;;0.90;98.20;;;;;;4969632;28;20504;-74
2022/01/11 02:08:08;;;;;;;1.70;1.50;;;0.90;98.20;;;;;;4975972;28;21067;-74
2022/01/11 02:10:36;;;;;;;1.67;1.50;;;0.90;98.20;;;;;;4968987;28;20481;-74
2022/01/11 02:13:04;;;;;;;1.70;1.60;;;1.00;98.20;;;;;;4973581;28;20527;-73
2022/01/11 02:15:31;;;;;;;1.70;1.50;;;1.00;98.20;;;;;;4969293;28;20967;-74
2022/01/11 02:18:07;;;;;;;1.80;1.70;;;1.00;98.20;;;;;;4973846;28;20539;-74
2022/01/11 02:20:36;;;;;;;1.63;1.50;;;1.00;98.20;;;;;;4967375;28;20465;-73
2022/01/11 02:23:03;;;;;;;1.80;1.70;;;1.00;98.20;;;;;;4970326;28;20485;-74
2022/01/11 02:25:30;;;;;;;1.70;1.50;;;1.00;98.20;;;;;;4965542;28;21303;-74
2022/01/11 02:27:56;;;;;;;3.00;2.70;;;1.00;98.20;;;;;;4972774;28;20826;-74
2022/01/11 02:30:23;;;;;;;1.90;1.80;;;1.00;98.20;;;;;;4957009;28;20486;-74
2022/01/11 02:32:51;;;;;;;1.70;1.53;;;1.00;98.20;;;;;;4972360;28;20489;-74
2022/01/11 02:35:19;;;;;;;1.70;1.50;;;1.00;98.20;;;;;;4963306;28;20484;-74
2022/01/11 02:37:47;;;;;;;1.77;1.67;;;1.00;98.20;;;;;;4973104;28;20495;-74
2022/01/11 02:40:16;;;;;;;1.67;1.50;;;1.10;98.20;;;;;;4966427;28;20454;-73
2022/01/11 02:42:43;;;;;;;1.67;1.50;;;1.10;98.20;;;;;;4970342;28;20491;-73
2022/01/11 02:45:14;;;;;;;3.60;3.30;;;1.10;98.20;;;;;;4968493;28;20486;-73
2022/01/11 02:47:41;;;;;;;2.20;2.00;;;1.10;98.20;;;;;;4973438;28;20573;-73
2022/01/11 02:50:10;;;;;;;1.70;1.60;;;1.10;98.20;;;;;;4969997;28;20582;-73
2022/01/11 02:52:37;;;;;;;1.77;1.67;;;1.10;98.20;;;;;;4972244;28;20965;-73
2022/01/11 02:55:09;;;;;;;1.67;1.50;;;1.00;98.20;;;;;;4966118;28;20482;-73
2022/01/11 02:57:36;;;;;;;1.67;1.57;;;1.00;98.20;;;;;;4972751;28;20891;-73
2022/01/11 03:00:05;;;;;;;1.70;1.60;;;1.00;98.20;;;;;;4968865;28;20462;-74
2022/01/11 03:02:33;;;;;;;1.70;1.50;;;1.00;98.20;;;;;;4970550;28;20608;-73
2022/01/11 03:05:00;;;;;;;1.63;1.50;;;0.90;98.20;;;;;;4971778;28;20871;-72
2022/01/11 03:07:26;;;;;;;1.70;1.50;;;0.90;98.20;;;;;;4970125;28;20489;-73
2022/01/11 03:10:02;;;;;;;1.93;1.80;;;0.80;98.20;;;;;;4967088;28;20490;-73
2022/01/11 03:12:31;;;;;;;1.70;1.60;;;0.80;98.20;;;;;;4970690;28;20913;-72
2022/01/11 03:14:58;;;;;;;2.27;2.07;;;0.80;98.20;;;;;;4968599;28;20493;-73
2022/01/11 03:17:26;;;;;;;1.70;1.60;;;0.90;98.20;;;;;;4970300;28;21005;-73
2022/01/11 03:19:53;;;;;;;1.80;1.70;;;0.90;98.20;;;;;;4970413;28;20517;-73
2022/01/11 03:22:20;;;;;;;1.70;1.50;;;0.90;98.20;;;;;;4969860;28;20508;-72
2022/01/11 03:24:47;;;;;;;1.70;1.60;;;0.90;98.20;;;;;;4971742;28;20489;-72
2022/01/11 03:27:14;;;;;;;1.80;1.70;;;0.90;98.20;;;;;;4967498;28;20865;-73
2022/01/11 03:29:42;;;;;;;1.70;1.60;;;0.90;98.20;;;;;;4976081;28;20501;-73
2022/01/11 03:32:12;;;;;;;1.90;1.80;;;0.80;98.20;;;;;;4972168;28;20489;-73
2022/01/11 03:34:41;;;;;;;1.70;1.50;;;0.80;98.20;;;;;;4970077;28;20513;-73
2022/01/11 03:37:10;;;;;;;1.70;1.60;;;0.80;98.20;;;;;;4970263;28;20484;-73
2022/01/11 03:39:37;;;;;;;1.70;1.50;;;0.70;98.20;;;;;;4976964;28;20485;-73
2022/01/11 03:42:04;;;;;;;1.70;1.60;;;0.60;98.20;;;;;;4970454;28;20484;-72
2022/01/11 03:44:30;;;;;;;2.70;2.47;;;0.60;98.20;;;;;;4976685;28;20918;-73
2022/01/11 03:46:59;;;;;;;1.70;1.50;;;0.50;98.20;;;;;;4970583;28;20492;-72
2022/01/11 03:49:25;;;;;;;1.70;1.60;;;0.60;98.20;;;;;;4978129;28;20950;-72
2022/01/11 03:51:52;;;;;;;1.80;1.70;;;0.60;98.20;;;;;;4970200;28;20489;-73
2022/01/11 03:54:24;;;;;;;1.70;1.60;;;0.60;98.20;;;;;;4980891;28;20496;-73
2022/01/11 03:56:52;;;;;;;1.70;1.60;;;0.60;98.20;;;;;;4964035;28;20867;-73
2022/01/11 03:59:19;;;;;;;2.77;2.57;;;0.60;98.20;;;;;;4978939;28;20928;-73
2022/01/11 04:01:47;;;;;;;1.70;1.60;;;0.60;98.20;;;;;;4968623;28;20488;-73
2022/01/11 04:04:15;;;;;;;1.70;1.60;;;0.60;98.20;;;;;;4980962;28;20496;-73
2022/01/11 04:06:42;;;;;;;1.80;1.70;;;0.60;98.20;;;;;;5039842;22;20569;-75
2022/01/11 04:09:11;;;;;;;1.67;1.50;;;0.60;98.20;;;;;;5030568;28;20482;-74
2022/01/11 04:11:38;;;;;;;1.70;1.60;;;0.70;98.20;;;;;;5026486;28;20478;-75
2022/01/11 04:14:05;;;;;;;1.80;1.70;;;0.70;98.20;;;;;;5038213;28;20609;-75
2022/01/11 04:16:32;;;;;;;1.80;1.70;;;0.70;98.20;;;;;;5010572;28;20560;-73
2022/01/11 04:18:59;;;;;;;1.67;1.57;;;0.70;98.20;;;;;;5026384;28;20455;-73
2022/01/11 04:21:27;;;;;;;1.70;1.60;;;0.70;98.20;;;;;;5007908;28;20477;-73
2022/01/11 04:23:54;;;;;;;1.67;1.50;;;0.70;98.20;;;;;;5024831;28;20470;-73
2022/01/11 04:26:21;;;;;;;1.70;1.50;;;0.80;98.20;;;;;;5012080;28;20474;-73
2022/01/11 04:28:48;;;;;;;1.70;1.50;;;0.80;98.20;;;;;;5027530;28;20468;-73
2022/01/11 04:31:15;;;;;;;1.70;1.60;;;0.80;98.20;;;;;;5000915;28;20471;-73
2022/01/11 04:33:43;;;;;;;1.80;1.70;;;0.80;98.20;;;;;;5020980;28;20464;-74
2022/01/11 04:36:11;;;;;;;1.70;1.60;;;0.80;98.20;;;;;;5002436;28;20931;-74
2022/01/11 04:38:41;;;;;;;1.70;1.50;;;0.90;98.20;;;;;;5021238;28;20893;-74
2022/01/11 04:41:08;;;;;;;1.67;1.50;;;0.80;98.20;;;;;;5002012;28;20468;-74
2022/01/11 04:43:35;;;;;;;1.63;1.50;;;0.90;98.20;;;;;;5021310;28;21011;-74
2022/01/11 04:46:02;;;;;;;1.70;1.50;;;0.90;98.20;;;;;;5001189;28;20480;-74
2022/01/11 04:48:32;;;;;;;1.67;1.50;;;0.90;98.20;;;;;;5017831;28;20567;-74
2022/01/11 04:51:00;;;;;;;1.77;1.67;;;0.90;98.20;;;;;;4999701;28;20490;-74
2022/01/11 04:53:27;;;;;;;1.67;1.53;;;0.90;98.20;;;;;;5034395;28;20464;-73
2022/01/11 04:55:55;;;;;;;1.70;1.60;;;0.80;98.20;;;;;;5005076;28;20858;-73
2022/01/11 04:58:23;;;;;;;1.70;1.50;;;0.80;98.20;;;;;;5034671;28;20609;-73
2022/01/11 05:00:50;;;;;;;1.80;1.70;;;0.80;98.20;;;;;;4988181;28;20492;-73
2022/01/11 05:03:19;;;;;;;1.60;1.40;;;0.80;98.20;;;;;;5019562;28;20471;-73
2022/01/11 05:05:46;;;;;;;1.60;1.50;;;0.80;98.20;;;;;;5002900;28;20491;-73
2022/01/11 05:08:13;;;;;;;1.70;1.50;;;0.70;98.20;;;;;;4996456;28;20570;-73
2022/01/11 05:10:42;;;;;;;1.63;1.50;;;0.70;98.20;;;;;;5005166;28;20484;-73
2022/01/11 05:13:11;;;;;;;1.70;1.60;;;0.70;98.20;;;;;;5010949;28;20550;-73
2022/01/11 05:15:38;;;;;;;4.00;3.80;;;0.70;98.20;;;;;;5006643;28;20976;-73
2022/01/11 05:18:05;;;;;;;1.70;1.60;;;0.60;98.20;;;;;;5014818;28;20479;-73
2022/01/11 05:20:32;;;;;;;1.83;1.73;;;0.60;98.20;;;;;;5007597;28;20455;-73
2022/01/11 05:22:58;;;;;;;1.70;1.60;;;0.60;98.20;;;;;;5012798;28;20849;-73
2022/01/11 05:25:25;;;;;;;1.77;1.67;;;0.60;98.20;;;;;;5004119;28;20884;-73
2022/01/11 05:27:52;;;;;;;1.67;1.50;;;0.60;98.20;;;;;;5009661;28;20486;-73
2022/01/11 05:30:21;;;;;;;2.10;1.90;;;0.60;98.20;;;;;;5007815;28;21051;-73
2022/01/11 05:32:48;;;;;;;1.80;1.70;;;0.60;98.20;;;;;;5012384;28;20497;-73
2022/01/11 05:35:16;;;;;;;1.90;1.80;;;0.70;98.20;;;;;;5005621;28;20575;-72
2022/01/11 05:37:43;;;;;;;1.70;1.60;;;0.60;98.20;;;;;;5022002;28;20482;-72
2022/01/11 05:40:12;;;;;;;1.70;1.60;;;0.60;98.20;;;;;;5009897;28;20487;-73
2022/01/11 05:42:39;;;;;;;1.80;1.70;;;0.60;98.20;;;;;;5011340;28;20491;-73
2022/01/11 05:45:08;;;;;;;1.70;1.60;;;0.60;98.20;;;;;;5006726;28;20854;-73
2022/01/11 05:47:36;;;;;;;2.13;1.93;;;0.60;98.20;;;;;;5014496;28;20482;-73
2022/01/11 05:50:06;;;;;;;1.63;1.40;;;0.60;98.20;;;;;;5009533;28;20858;-73
2022/01/11 05:52:33;;;;;;;1.70;1.60;;;0.50;98.20;;;;;;5008846;28;20518;-74
2022/01/11 05:55:00;;;;;;;1.93;1.83;;;0.50;98.20;;;;;;5008069;28;20495;-73
2022/01/11 05:57:27;;;;;;;1.70;1.60;;;0.50;98.20;;;;;;5016520;28;20475;-72
2022/01/11 05:59:54;;;;;;;1.63;1.50;;;0.50;98.20;;;;;;5011224;28;20529;-73
2022/01/11 06:02:21;;;;;;;1.73;1.63;;;0.50;98.20;;;;;;5007551;28;20907;-73
2022/01/11 06:04:49;;;;;;;1.70;1.60;;;0.60;98.20;;;;;;5009310;28;20560;-73
2022/01/11 06:07:16;;;;;;;1.67;1.50;;;0.50;98.20;;;;;;5007563;28;20498;-72
2022/01/11 06:09:43;;;;;;;1.70;1.60;;;0.50;98.20;;;;;;5011351;28;20488;-73
2022/01/11 06:12:10;;;;;;;2.37;2.17;;;0.50;98.20;;;;;;5004326;28;20474;-73
2022/01/11 06:14:37;;;;;;;1.73;1.63;;;0.50;98.20;;;;;;5011925;28;20460;-73
2022/01/11 06:17:04;;;;;;;1.80;1.70;;;0.40;98.20;;;;;;5005006;28;20502;-73
2022/01/11 06:19:31;;;;;;;1.77;1.67;;;0.40;98.20;;;;;;5007057;28;20979;-73
2022/01/11 06:21:59;;;;;;;1.70;1.60;;;0.40;98.20;;;;;;5000798;28;21095;-73
2022/01/11 06:24:26;;;;;;;1.67;1.50;;;0.30;98.20;;;;;;5010822;28;20492;-73
2022/01/11 06:26:53;;;;;;;1.70;1.60;;;0.20;98.20;;;;;;5006184;28;20850;-73
2022/01/11 06:29:20;;;;;;;1.70;1.60;;;0.20;98.20;;;;;;5015767;28;20473;-73
2022/01/11 06:31:46;;;;;;;1.70;1.60;;;0.20;98.20;;;;;;5003793;28;20475;-73
2022/01/11 06:34:14;;;;;;;1.70;1.60;;;0.20;98.20;;;;;;5013015;28;20475;-73
2022/01/11 06:36:40;;;;;;;1.70;1.57;;;0.20;98.20;;;;;;5004128;28;20860;-73
2022/01/11 06:39:08;;;;;;;1.70;1.50;;;0.20;98.20;;;;;;5013525;28;20956;-73
2022/01/11 06:41:35;;;;;;;2.03;1.90;;;0.20;98.20;;;;;;5001554;28;20991;-73
2022/01/11 06:44:02;;;;;;;1.70;1.60;;;0.20;98.20;;;;;;5014321;28;20907;-73
2022/01/11 06:46:29;;;;;;;2.03;1.83;;;0.20;98.20;;;;;;4999517;28;20495;-73
2022/01/11 06:48:57;;;;;;;1.70;1.50;;;0.20;98.20;;;;;;5022411;28;20570;-73
2022/01/11 06:51:24;;;;;;;2.50;2.30;;;0.30;98.20;;;;;;5000885;28;20921;-73
2022/01/11 06:53:51;;;;;;;1.90;1.80;;;0.20;98.20;;;;;;5016490;28;20971;-73
2022/01/11 06:56:21;;;;;;;1.70;1.60;;;0.20;98.20;;;;;;5002478;28;20483;-72
2022/01/11 06:58:47;;;;;;;1.80;1.70;;;0.20;98.20;;;;;;5023044;28;20460;-74
2022/01/11 07:01:14;;;;;;;1.70;1.60;;;0.20;98.20;;;;;;4999428;28;20490;-73
2022/01/11 07:03:41;;;;;;;1.70;1.50;;;0.10;98.20;;;;;;5017317;28;20814;-73
2022/01/11 07:06:08;;;;;;;1.70;1.60;;;0.10;98.20;;;;;;4996729;28;20483;-74
2022/01/11 07:08:34;;;;;;;1.70;1.57;;;0.10;98.20;;;;;;5017384;28;20582;-74
2022/01/11 07:11:01;;;;;;;2.10;1.90;;;0.10;98.20;;;;;;4997470;28;20484;-72
2022/01/11 07:13:30;;;;;;;1.67;1.50;;;0.10;98.20;;;;;;5019824;28;20483;-73
2022/01/11 07:15:57;;;;;;;1.70;1.60;;;0.10;98.20;;;;;;4996929;28;20909;-73
2022/01/11 07:18:23;;;;;;;1.70;1.60;;;0.10;98.20;;;;;;5021129;28;20468;-72
2022/01/11 07:20:50;;;;;;;1.77;1.67;;;0.10;98.20;;;;;;4993646;28;20464;-73
2022/01/11 07:23:17;;;;;;;1.90;1.80;;;0.10;98.20;;;;;;5021429;28;20459;-73
2022/01/11 07:25:44;;;;;;;1.70;1.60;;;0.10;98.20;;;;;;5005325;28;20480;-73
2022/01/11 07:28:14;;;;;;;1.80;1.70;;;0.10;98.20;;;;;;5010878;28;20488;-73
2022/01/11 07:30:42;;;;;;;1.70;1.50;;;0.00;98.20;;;;;;5004636;28;20488;-73
2022/01/11 07:33:08;;;;;;;11.03;10.43;;;0.10;98.20;;;;;;5009187;28;20495;-73
2022/01/11 07:35:36;;;;;;;1.70;1.60;;;0.00;98.20;;;;;;5004955;28;20522;-73
2022/01/11 07:38:03;;;;;;;1.80;1.70;;;0.10;98.20;;;;;;5014142;28;20486;-73
2022/01/11 07:40:30;;;;;;;2.93;2.73;;;0.00;98.20;;;;;;5008781;28;20452;-73
2022/01/11 07:42:57;;;;;;;1.70;1.60;;;0.10;98.20;;;;;;5006452;28;20480;-73
2022/01/11 07:45:24;;;;;;;1.70;1.60;;;0.10;98.20;;;;;;5003688;28;20472;-73
2022/01/11 07:47:52;;;;;;;1.70;1.60;;;0.10;98.20;;;;;;5007914;28;20486;-73
2022/01/11 07:50:19;;;;;;;1.70;1.60;;;0.10;98.20;;;;;;5004950;28;20967;-75
2022/01/11 07:52:46;;;;;;;3.20;3.00;;;0.10;98.20;;;;;;5008938;28;20471;-75
2022/01/11 07:55:13;;;;;;;1.70;1.50;;;0.10;98.20;;;;;;5005480;28;20483;-74
2022/01/11 07:57:39;;;;;;;1.80;1.70;;;0.10;98.20;;;;;;5009739;28;20479;-74
2022/01/11 08:00:07;;;;;;;1.63;1.50;;;0.10;98.20;;;;;;5005657;28;20937;-75
2022/01/11 08:02:34;;;;;;;1.93;1.83;;;0.10;98.20;;;;;;5006338;28;21072;-75
2022/01/11 08:05:04;;;;;;;1.70;1.60;;;0.10;98.20;;;;;;5005528;28;20596;-75
2022/01/11 08:07:32;;;;;;;2.07;1.87;;;0.10;98.20;;;;;;5009154;28;20781;-75
2022/01/11 08:09:59;;;;;;;1.67;1.57;;;0.10;98.20;;;;;;5005560;28;20535;-75
2022/01/11 08:12:26;;;;;;;1.70;1.60;;;0.10;98.20;;;;;;5006263;28;20968;-75
2022/01/11 08:14:53;;;;;;;1.93;1.83;;;0.10;98.20;;;;;;5007938;28;21047;-75
2022/01/11 08:17:19;;;;;;;1.70;1.60;;;0.20;98.20;;;;;;5000688;28;20476;-74
2022/01/11 08:19:47;;;;;;;1.70;1.50;;;0.20;98.20;;;;;;5008948;28;20486;-74
2022/01/11 08:22:15;;;;;;;1.70;1.60;;;0.20;98.20;;;;;;5002954;28;20701;-75
2022/01/11 08:24:44;;;;;;;1.67;1.50;;;0.20;98.20;;;;;;5015007;28;20480;-74
2022/01/11 08:27:11;;;;;;;1.80;1.70;;;0.20;98.20;;;;;;5004361;28;20488;-75
2022/01/11 08:29:39;;;;;;;3.23;3.03;;;0.20;98.20;;;;;;5010956;28;20510;-75
2022/01/11 08:32:07;;;;;;;1.70;1.60;;;0.20;98.20;;;;;;5008857;28;21003;-74
2022/01/11 08:34:34;;;;;;;2.00;1.83;;;0.10;98.20;;;;;;5008755;28;20464;-75
2022/01/11 08:37:00;;;;;;;1.70;1.50;;;0.20;98.20;;;;;;5005096;28;20483;-74
2022/01/11 08:39:28;;;;;;;1.70;1.50;;;0.20;98.20;;;;;;5008271;28;20463;-74
2022/01/11 08:41:55;;;;;;;1.70;1.60;;;0.20;98.20;;;;;;5003314;28;20867;-74
2022/01/11 08:44:24;;;;;;;1.77;1.67;;;0.20;98.20;;;;;;5016547;28;20465;-75
2022/01/11 08:46:51;;;;;;;1.80;1.70;;;0.20;98.20;;;;;;5003001;28;20483;-75
2022/01/11 08:49:18;;;;;;;2.43;2.23;;;0.20;98.20;;;;;;5013659;28;20456;-75
2022/01/11 08:51:45;;;;;;;1.70;1.60;;;0.20;98.20;;;;;;5002866;28;20482;-75
2022/01/11 08:54:12;;;;;;;2.00;1.80;;;0.20;98.20;;;;;;5018651;28;20464;-74
2022/01/11 08:56:41;;;;;;;1.67;1.50;;;0.20;98.20;;;;;;5001496;28;20491;-75
2022/01/11 08:59:08;;;;;;;1.70;1.60;;;0.20;98.20;;;;;;5014646;28;20468;-74
2022/01/11 09:01:35;;;;;;;1.70;1.50;;;0.20;98.20;;;;;;4996711;28;20490;-72
2022/01/11 09:04:02;;;;;;;1.70;1.60;;;0.20;98.20;;;;;;5011183;28;20473;-73
2022/01/11 09:06:29;;;;;;;1.70;1.50;;;0.30;98.20;;;;;;4999154;28;20784;-72
2022/01/11 09:08:56;;;;;;;1.83;1.67;;;0.30;98.20;;;;;;5009650;28;20465;-72
2022/01/11 09:11:22;;;;;;;1.70;1.60;;;0.30;98.20;;;;;;4999734;28;20474;-75
2022/01/11 09:13:51;;;;;;;1.70;1.50;;;0.30;98.20;;;;;;5018621;28;20464;-75
2022/01/11 09:16:18;;;;;;;1.80;1.70;;;0.30;98.20;;;;;;5000879;28;20558;-75
2022/01/11 09:18:46;;;;;;;1.80;1.70;;;0.30;98.20;;;;;;5020551;28;20460;-75
2022/01/11 09:21:13;;;;;;;1.70;1.60;;;0.30;98.20;;;;;;5001197;28;20517;-75
2022/01/11 09:23:40;;;;;;;2.27;2.07;;;0.30;98.20;;;;;;5021162;28;20842;-74
2022/01/11 09:26:06;;;;;;;1.80;1.70;;;0.40;98.20;;;;;;5002151;28;20481;-75
2022/01/11 09:28:33;;;;;;;1.77;1.67;;;0.40;98.20;;;;;;5032140;28;20634;-75
2022/01/11 09:31:01;;;;;;;1.83;1.73;;;0.40;98.20;;;;;;4999476;28;20871;-74
2022/01/11 09:33:28;;;;;;;1.70;1.60;;;0.30;98.20;;;;;;5021414;28;20512;-75
2022/01/11 09:35:55;;;;;;;1.83;1.73;;;0.30;98.20;;;;;;4998193;28;20861;-75
2022/01/11 09:38:22;;;;;;;1.70;1.60;;;0.40;98.20;;;;;;5024475;28;20459;-75
2022/01/11 09:40:51;;;;;;;1.70;1.57;;;0.40;98.20;;;;;;5005873;28;20460;-75
2022/01/11 09:43:21;;;;;;;1.70;1.50;;;0.50;98.20;;;;;;5022199;28;20468;-72
2022/01/11 09:45:48;;;;;;;1.67;1.50;;;0.60;98.20;;;;;;4999788;28;20565;-71
2022/01/11 09:48:19;;;;;;;1.70;1.50;;;0.60;98.20;;;;;;5023267;28;21005;-72
2022/01/11 09:50:46;;;;;;;2.10;1.93;;;0.60;98.20;;;;;;5010288;28;20771;-71
2022/01/11 09:53:14;;;;;;;1.70;1.53;;;0.60;98.20;;;;;;5008047;28;20487;-71
2022/01/11 09:55:41;;;;;;;1.70;1.60;;;0.70;98.20;;;;;;5009151;28;21035;-73
2022/01/11 09:58:08;;;;;;;1.70;1.57;;;0.80;98.20;;;;;;5012361;28;20711;-73
2022/01/11 10:00:35;;;;;;;1.60;1.40;;;0.80;98.20;;;;;;5008041;28;20851;-73
2022/01/11 10:03:04;;;;;;;1.63;1.50;;;0.90;98.20;;;;;;5012165;28;20902;-72
2022/01/11 10:05:33;;;;;;;1.67;1.47;;;0.90;98.20;;;;;;5007257;28;21084;-73
2022/01/11 10:08:00;;;;;;;1.67;1.50;;;1.00;98.20;;;;;;5012100;28;20483;-73
2022/01/11 10:10:28;;;;;;;2.63;2.43;;;1.00;98.20;;;;;;5006939;28;20460;-72
2022/01/11 10:12:58;;;;;;;1.70;1.60;;;1.10;98.20;;;;;;5012190;28;20487;-72
2022/01/11 10:15:28;;;;;;;1.70;1.50;;;1.10;98.20;;;;;;5008310;28;20549;-72
2022/01/11 10:17:56;;;;;;;1.80;1.70;;;1.20;98.20;;;;;;5012914;28;20483;-72
2022/01/11 10:20:24;;;;;;;1.70;1.60;;;1.20;98.20;;;;;;5007551;28;20909;-72
2022/01/11 10:22:54;;;;;;;1.70;1.50;;;1.20;98.20;;;;;;5012190;28;20483;-72
2022/01/11 10:25:22;;;;;;;1.70;1.50;;;1.20;98.20;;;;;;5011392;28;20479;-73
2022/01/11 10:27:56;;;;;;;1.63;1.50;;;1.20;98.20;;;;;;5018698;28;20574;-72
2022/01/11 10:30:25;;;;;;;2.70;2.50;;;1.10;98.20;;;;;;5006983;28;20461;-72
2022/01/11 10:32:53;;;;;;;1.67;1.50;;;1.10;98.20;;;;;;5012254;28;20511;-72
2022/01/11 10:35:24;;;;;;;1.80;1.70;;;1.10;98.20;;;;;;5010346;28;20491;-72
2022/01/11 10:37:54;;;;;;;1.70;1.60;;;1.10;98.20;;;;;;5011563;28;20491;-73
2022/01/11 10:40:23;;;;;;;1.70;1.40;;;1.10;98.20;;;;;;5007083;28;20475;-73
2022/01/11 10:42:53;;;;;;;1.63;1.50;;;1.10;98.20;;;;;;5009655;28;20479;-72
2022/01/11 10:45:22;;;;;;;1.70;1.57;;;1.10;98.20;;;;;;5007025;28;20502;-73
2022/01/11 10:47:51;;;;;;;1.70;1.50;;;1.10;98.20;;;;;;5012649;28;20991;-74
2022/01/11 10:50:22;;;;;;;1.67;1.50;;;1.20;98.20;;;;;;5008289;28;20472;-73
2022/01/11 10:52:49;;;;;;;1.70;1.60;;;1.20;98.20;;;;;;5012591;28;20480;-73
2022/01/11 10:55:19;;;;;;;1.73;1.63;;;1.30;98.20;;;;;;5008246;28;20483;-74
2022/01/11 10:57:51;;;;;;;1.70;1.50;;;1.40;98.20;;;;;;5016934;28;20927;-74
2022/01/11 11:00:25;;;;;;;1.80;1.70;;;1.60;98.20;;;;;;5012017;28;20778;-73
2022/01/11 11:02:59;;;;;;;1.70;1.50;;;1.70;98.20;;;;;;5010936;28;20867;-73
2022/01/11 11:05:33;;;;;;;1.70;1.60;;;1.90;98.20;;;;;;5007431;28;20498;-73
2022/01/11 11:08:12;;;;;;;1.70;1.40;;;2.00;98.20;;;;;;5012339;28;20482;-73
2022/01/11 11:10:44;;;;;;;1.67;1.40;;;2.10;98.20;;;;;;5004521;28;20808;-73
2022/01/11 11:13:21;;;;;;;1.70;1.50;;;2.10;98.20;;;;;;4995821;28;20491;-73
2022/01/11 11:15:51;;;;;;;1.70;1.50;;;2.20;98.20;;;;;;4998867;28;20488;-73
2022/01/11 11:18:30;;;;;;;1.70;1.53;;;2.20;98.20;;;;;;5022601;28;20472;-73
2022/01/11 11:20:58;;;;;;;2.43;2.23;;;2.20;98.20;;;;;;4998697;28;20559;-73
2022/01/11 11:23:24;;;;;;;1.80;1.70;;;2.30;98.20;;;;;;5026218;28;20467;-73
2022/01/11 11:25:52;;;;;;;1.70;1.50;;;2.30;98.20;;;;;;4998927;28;21023;-73
2022/01/11 11:28:21;;;;;;;1.70;1.50;;;2.40;98.20;;;;;;5027008;28;20479;-73
2022/01/11 11:30:50;;;;;;;1.70;1.57;;;2.50;98.20;;;;;;4996382;28;20891;-73
2022/01/11 11:33:19;;;;;;;3.40;3.10;;;2.60;98.20;;;;;;5020073;28;20495;-73
2022/01/11 11:35:49;;;;;;;1.67;1.40;;;2.60;98.20;;;;;;5001229;28;20488;-73
2022/01/11 11:38:16;;;;;;;1.70;1.53;;;2.60;98.20;;;;;;5021865;28;20490;-73
2022/01/11 11:40:44;;;;;;;1.70;1.43;;;2.70;98.20;;;;;;5005929;28;20468;-73
2022/01/11 11:43:13;;;;;;;1.67;1.40;;;2.70;98.20;;;;;;5010532;28;20491;-74
2022/01/11 11:45:41;;;;;;;1.70;1.50;;;2.70;98.20;;;;;;5002534;28;20494;-73
2022/01/11 11:48:10;;;;;;;1.70;1.50;;;2.80;98.20;;;;;;5010814;28;20480;-73
2022/01/11 11:50:48;;;;;;;1.70;1.40;;;2.80;98.20;;;;;;5008100;28;20857;-73
2022/01/11 11:53:23;;;;;;;1.70;1.40;;;2.80;98.20;;;;;;4999570;28;20482;-72
2022/01/11 11:55:51;;;;;;;1.93;1.73;;;2.70;98.20;;;;;;5005082;28;20488;-73
2022/01/11 11:58:23;;;;;;;1.67;1.50;;;2.60;98.20;;;;;;5030283;28;20459;-73
2022/01/11 12:00:51;;;;;;;1.70;1.50;;;2.50;98.20;;;;;;5004773;28;20826;-72
2022/01/11 12:03:24;;;;;;;1.70;1.50;;;2.50;98.20;;;;;;5024085;28;20478;-72
2022/01/11 12:05:52;;;;;;;1.70;1.53;;;2.50;98.20;;;;;;4999514;28;20582;-74
2022/01/11 12:08:33;;;;;;;1.70;1.40;;;2.50;98.20;;;;;;5023208;28;20816;-73
2022/01/11 12:11:02;;;;;;;1.60;1.40;;;2.50;98.20;;;;;;5001318;28;20503;-73
2022/01/11 12:13:46;;;;;;;1.70;1.57;;;2.40;98.20;;;;;;5030239;28;20648;-74
2022/01/11 12:16:41;;;;;;;1.70;1.50;;;2.50;98.20;;;;;;5006246;28;20822;-73
2022/01/11 12:19:27;;;;;;;1.70;1.40;;;2.50;98.20;;;;;;5011549;28;20570;-72
2022/01/11 12:22:19;;;;;;;1.70;1.60;;;2.60;98.20;;;;;;5006880;28;20483;-73
2022/01/11 12:24:47;;;;;;;1.70;1.50;;;2.60;98.20;;;;;;5011250;28;20459;-73
2022/01/11 12:27:15;;;;;;;1.70;1.50;;;2.70;98.20;;;;;;5020254;28;20474;-72
2022/01/11 12:30:00;;;;;;;1.67;1.40;;;2.70;98.20;;;;;;5019041;28;20456;-73
2022/01/11 12:32:29;;;;;;;1.70;1.40;;;2.70;98.20;;;;;;5011548;28;20494;-73
2022/01/11 12:35:09;;;;;;;1.70;1.50;;;2.80;98.20;;;;;;5005626;28;20463;-73
2022/01/11 12:37:39;;;;;;;1.70;1.60;;;2.80;98.20;;;;;;5007940;28;20503;-73
2022/01/11 12:40:12;;;;;;;1.80;1.70;;;2.90;98.20;;;;;;5001384;28;20484;-73
2022/01/11 12:42:50;;;;;;;1.70;1.53;;;2.90;98.20;;;;;;5015264;28;21062;-73
2022/01/11 12:45:37;;;;;;;1.70;1.50;;;3.00;98.20;;;;;;5012651;28;20886;-74
2022/01/11 12:48:04;;;;;;;1.80;1.70;;;3.00;98.20;;;;;;5010526;28;20491;-73
2022/01/11 12:50:31;;;;;;;1.67;1.40;;;3.10;98.20;;;;;;5010560;28;20459;-73
2022/01/11 12:52:59;;;;;;;1.80;1.70;;;3.20;98.20;;;;;;5008607;28;20486;-74
2022/01/11 12:55:26;;;;;;;1.67;1.43;;;3.30;98.20;;;;;;5009979;28;20512;-72
2022/01/11 12:57:56;;;;;;;1.70;1.50;;;3.40;98.20;;;;;;5014279;28;20570;-72
2022/01/11 13:00:24;;;;;;;1.70;1.43;;;3.60;98.20;;;;;;4998789;28;20507;-72
2022/01/11 13:02:51;;;;;;;1.70;1.50;;;3.90;98.20;;;;;;5010671;28;21188;-73
2022/01/11 13:05:21;;;;;;;7.73;2.93;;;4.10;98.20;;;;;;4999218;28;20499;-73